createdAt,value
2022-11-13T00:02:22.493Z,12.40
2022-11-13T00:05:42.870Z,13.70
2022-11-13T00:09:03.374Z,15.20
2022-11-13T00:12:23.866Z,15.23
2022-11-13T00:15:44.264Z,17.07
2022-11-13T00:19:04.580Z,12.17
2022-11-13T00:22:25.011Z,13.87
2022-11-13T00:25:45.288Z,13.23
2022-11-13T00:29:05.581Z,11.83
2022-11-13T00:32:26.663Z,9.90
2022-11-13T00:35:47.152Z,11.07
2022-11-13T00:39:07.507Z,12.20
2022-11-13T00:42:28.027Z,13.70
2022-11-13T00:45:48.239Z,13.03
2022-11-13T00:49:08.681Z,12.93
2022-11-13T00:52:28.942Z,13.67
2022-11-13T00:55:49.432Z,11.83
2022-11-13T00:59:09.957Z,18.00
2022-11-13T01:02:30.148Z,15.83
2022-11-13T01:05:50.507Z,13.00
2022-11-13T01:09:10.859Z,8.83
2022-11-13T01:12:31.436Z,17.93
2022-11-13T01:15:51.808Z,9.93
2022-11-13T01:19:12.279Z,11.93
2022-11-13T01:22:32.735Z,10.90
2022-11-13T01:25:53.082Z,11.27
2022-11-13T01:29:13.377Z,9.83
2022-11-13T01:32:34.414Z,7.73
2022-11-13T01:36:04.254Z,7.40
2022-11-13T01:39:24.456Z,9.93
2022-11-13T01:42:45.011Z,8.50
2022-11-13T01:46:29.047Z,9.67
2022-11-13T01:49:52.982Z,9.90
2022-11-13T01:53:13.464Z,9.33
2022-11-13T01:56:33.810Z,10.87
2022-11-13T02:00:00.431Z,11.73
2022-11-13T02:03:20.945Z,13.40
2022-11-13T02:06:45.786Z,11.40
2022-11-13T02:10:06.812Z,10.47
2022-11-13T02:13:27.303Z,12.87
2022-11-13T02:16:50.990Z,9.87
2022-11-13T02:20:11.386Z,12.40
2022-11-13T02:24:00.823Z,11.17
2022-11-13T02:27:25.981Z,11.83
2022-11-13T02:30:46.101Z,14.70
2022-11-13T02:34:06.399Z,12.20
2022-11-13T02:37:26.691Z,17.37
2022-11-13T02:40:47.203Z,13.17
2022-11-13T02:44:08.662Z,14.60
2022-11-13T02:47:29.132Z,9.67
2022-11-13T02:50:50.134Z,16.93
2022-11-13T02:54:15.564Z,12.73
2022-11-13T02:57:36.942Z,11.47
2022-11-13T03:00:57.420Z,14.77
2022-11-13T03:04:17.734Z,10.07
2022-11-13T03:07:38.014Z,11.53
2022-11-13T03:10:58.922Z,13.77
2022-11-13T03:14:19.284Z,13.77
2022-11-13T03:17:39.739Z,11.20
2022-11-13T03:21:07.067Z,15.57
2022-11-13T03:24:27.519Z,11.20
2022-11-13T03:27:47.879Z,12.50
2022-11-13T03:31:08.740Z,10.33
2022-11-13T03:34:28.973Z,9.60
2022-11-13T03:37:49.406Z,10.60
2022-11-13T03:41:09.848Z,14.00
2022-11-13T03:44:30.317Z,10.27
2022-11-13T03:47:50.678Z,11.23
2022-11-13T03:51:11.026Z,12.47
2022-11-13T03:54:31.231Z,14.23
2022-11-13T03:57:51.635Z,13.40
2022-11-13T04:01:12.022Z,9.07
2022-11-13T04:04:32.481Z,11.80
2022-11-13T04:07:52.751Z,10.27
2022-11-13T04:11:13.478Z,10.37
2022-11-13T04:14:33.855Z,9.93
2022-11-13T04:17:54.348Z,10.70
2022-11-13T04:21:14.595Z,10.57
2022-11-13T04:24:35.007Z,10.30
2022-11-13T04:27:55.383Z,9.20
2022-11-13T04:31:15.632Z,13.00
2022-11-13T04:34:36.079Z,11.77
2022-11-13T04:37:56.442Z,9.80
2022-11-13T04:41:35.239Z,11.60
2022-11-13T04:44:55.648Z,10.00
2022-11-13T04:48:16.068Z,12.13
2022-11-13T04:51:36.504Z,9.13
2022-11-13T04:54:57.168Z,10.63
2022-11-13T04:58:17.334Z,11.10
2022-11-13T05:01:38.356Z,9.90
2022-11-13T05:05:04.450Z,9.63
2022-11-13T05:08:25.761Z,8.67
2022-11-13T05:11:46.610Z,7.53
2022-11-13T05:15:07.619Z,7.47
2022-11-13T05:18:28.175Z,9.53
2022-11-13T05:21:48.432Z,9.10
2022-11-13T05:25:08.936Z,9.77
2022-11-13T05:28:30.005Z,10.70
2022-11-13T05:31:50.466Z,9.17
2022-11-13T05:35:10.911Z,8.03
2022-11-13T05:38:31.864Z,10.27
2022-11-13T05:41:52.291Z,8.23
2022-11-13T05:45:12.730Z,7.57
2022-11-13T05:48:34.099Z,9.43
2022-11-13T05:51:54.762Z,12.57
2022-11-13T05:55:15.134Z,9.13
2022-11-13T05:58:35.989Z,9.87
2022-11-13T06:01:56.097Z,11.43
2022-11-13T06:05:16.488Z,9.13
2022-11-13T06:08:37.867Z,13.53
2022-11-13T06:11:58.072Z,9.27
2022-11-13T06:15:18.569Z,9.53
2022-11-13T06:18:40.264Z,6.87
2022-11-13T06:22:00.427Z,11.50
2022-11-13T06:25:20.840Z,11.03
2022-11-13T06:28:41.703Z,8.97
2022-11-13T06:32:02.185Z,10.97
2022-11-13T06:35:22.691Z,10.60
2022-11-13T06:38:44.160Z,9.97
2022-11-13T06:42:04.310Z,9.93
2022-11-13T06:45:24.579Z,9.97
2022-11-13T06:48:45.454Z,11.00
2022-11-13T06:52:06.496Z,7.80
2022-11-13T06:55:26.679Z,8.03
2022-11-13T06:58:47.272Z,12.30
2022-11-13T07:02:10.843Z,9.10
2022-11-13T07:05:31.324Z,10.00
2022-11-13T07:08:52.492Z,12.87
2022-11-13T07:12:12.952Z,13.20
2022-11-13T07:15:37.644Z,12.17
2022-11-13T07:18:57.896Z,10.63
2022-11-13T07:22:18.406Z,10.20
2022-11-13T07:25:38.783Z,9.23
2022-11-13T07:28:59.352Z,10.77
2022-11-13T07:32:19.959Z,12.17
2022-11-13T07:35:40.335Z,12.70
2022-11-13T07:39:00.783Z,13.57
2022-11-13T07:42:21.034Z,13.33
2022-11-13T07:45:41.558Z,14.23
2022-11-13T07:49:02.037Z,9.67
2022-11-13T07:52:22.506Z,13.97
2022-11-13T07:55:42.766Z,12.67
2022-11-13T07:59:03.084Z,10.83
2022-11-13T08:02:26.471Z,10.53
2022-11-13T08:05:47.355Z,12.43
2022-11-13T08:09:07.873Z,13.50
2022-11-13T08:12:28.225Z,14.53
2022-11-13T08:15:48.742Z,15.73
2022-11-13T08:19:09.312Z,14.73
2022-11-13T08:22:30.708Z,13.37
2022-11-13T08:25:51.240Z,11.07
2022-11-13T08:29:11.460Z,14.47
2022-11-13T08:32:31.903Z,16.17
2022-11-13T08:35:54.195Z,11.37
2022-11-13T08:39:14.560Z,14.00
2022-11-13T08:42:34.611Z,9.80
2022-11-13T08:45:55.712Z,12.63
2022-11-13T08:49:15.891Z,11.40
2022-11-13T08:52:36.759Z,9.90
2022-11-13T08:56:02.063Z,12.53
2022-11-13T08:59:23.595Z,12.47
2022-11-13T09:02:44.157Z,17.73
2022-11-13T09:06:08.626Z,11.00
2022-11-13T09:09:29.125Z,13.17
2022-11-13T09:12:49.590Z,10.07
2022-11-13T09:16:10.021Z,10.30
2022-11-13T09:19:30.581Z,14.90
2022-11-13T09:22:57.144Z,8.60
2022-11-13T09:26:17.912Z,9.67
2022-11-13T09:29:38.166Z,10.93
2022-11-13T09:33:00.642Z,8.13
2022-11-13T09:36:20.943Z,9.67
2022-11-13T09:39:41.839Z,8.10
2022-11-13T09:43:06.275Z,8.27
2022-11-13T09:46:57.677Z,11.13
2022-11-13T09:50:20.266Z,8.07
2022-11-13T09:53:41.567Z,7.53
2022-11-13T09:57:29.031Z,6.97
2022-11-13T10:00:49.387Z,6.83
2022-11-13T10:04:14.976Z,8.67
2022-11-13T10:07:53.826Z,7.40
2022-11-13T10:11:38.251Z,6.20
2022-11-13T10:15:03.314Z,7.20
2022-11-13T10:18:29.338Z,7.83
2022-11-13T10:22:26.555Z,7.10
2022-11-13T10:25:44.996Z,8.13
2022-11-13T10:29:14.855Z,6.93
2022-11-13T10:32:35.085Z,7.97
2022-11-13T10:36:14.983Z,6.37
2022-11-13T10:39:45.115Z,7.27
2022-11-13T10:43:18.751Z,7.20
2022-11-13T10:46:39.275Z,5.40
2022-11-13T10:50:11.142Z,8.60
2022-11-13T10:53:42.538Z,5.67
2022-11-13T10:57:06.203Z,5.60
2022-11-13T11:00:30.310Z,6.20
2022-11-13T11:03:51.292Z,10.03
2022-11-13T11:07:21.553Z,10.10
2022-11-13T11:11:02.212Z,7.13
2022-11-13T11:14:41.229Z,6.23
2022-11-13T11:18:05.775Z,5.00
2022-11-13T11:21:30.790Z,4.13
2022-11-13T11:25:37.137Z,7.97
2022-11-13T11:29:15.924Z,5.77
2022-11-13T11:32:46.415Z,5.20
2022-11-13T11:36:33.680Z,5.43
2022-11-13T11:40:26.891Z,6.43
2022-11-13T11:44:02.028Z,4.67
2022-11-13T11:47:22.365Z,6.03
2022-11-13T11:51:15.527Z,5.33
2022-11-13T11:55:20.052Z,5.07
2022-11-13T11:59:06.718Z,7.47
2022-11-13T12:02:48.689Z,4.25
2022-11-13T12:06:17.743Z,4.30
2022-11-13T12:09:50.174Z,4.13
2022-11-13T12:13:13.224Z,4.95
2022-11-13T12:16:51.540Z,3.50
2022-11-13T12:20:38.014Z,4.63
2022-11-13T12:24:14.887Z,4.97
2022-11-13T12:27:59.625Z,3.35
2022-11-13T12:31:38.974Z,4.13
2022-11-13T12:35:19.338Z,4.47
2022-11-13T12:38:49.934Z,3.60
2022-11-13T12:42:34.441Z,4.15
2022-11-13T12:45:57.576Z,3.33
2022-11-13T12:49:24.679Z,4.70
2022-11-13T12:52:44.884Z,9.10
2022-11-13T12:56:05.490Z,6.90
2022-11-13T12:59:40.043Z,12.80
2022-11-13T13:03:12.092Z,3.50
2022-11-13T13:07:14.256Z,5.50
2022-11-13T13:11:06.751Z,3.93
2022-11-13T13:14:50.413Z,4.23
2022-11-13T13:18:23.728Z,6.53
2022-11-13T13:21:44.743Z,6.73
2022-11-13T13:25:34.042Z,3.37
2022-11-13T13:29:19.184Z,4.30
2022-11-13T13:32:54.959Z,2.87
2022-11-13T13:36:29.696Z,3.10
2022-11-13T13:40:08.103Z,3.80
2022-11-13T13:44:09.394Z,3.30
2022-11-13T13:47:40.496Z,4.20
2022-11-13T13:51:01.998Z,4.80
2022-11-13T13:54:28.432Z,3.97
2022-11-13T13:57:48.993Z,6.67
2022-11-13T14:01:19.490Z,8.57
2022-11-13T14:04:58.498Z,5.97
2022-11-13T14:08:21.682Z,5.17
2022-11-13T14:11:41.763Z,6.33
2022-11-13T14:15:05.103Z,6.47
2022-11-13T14:18:27.235Z,4.17
2022-11-13T14:21:51.387Z,4.90
2022-11-13T14:25:25.478Z,5.13
2022-11-13T14:29:01.348Z,5.60
2022-11-13T14:32:25.391Z,5.10
2022-11-13T14:35:52.864Z,12.03
2022-11-13T14:39:21.641Z,13.30
2022-11-13T14:42:50.022Z,14.50
2022-11-13T14:46:26.132Z,9.90
2022-11-13T14:49:46.151Z,15.13
2022-11-13T14:53:08.959Z,8.63
2022-11-13T14:56:38.270Z,8.50
2022-11-13T15:00:15.207Z,11.80
2022-11-13T15:03:35.319Z,8.23
2022-11-13T15:07:03.843Z,6.87
2022-11-13T15:10:27.656Z,5.07
2022-11-13T15:13:50.060Z,7.97
2022-11-13T15:17:17.816Z,6.07
2022-11-13T15:20:38.352Z,4.37
2022-11-13T15:24:00.970Z,5.73
2022-11-13T15:27:21.354Z,5.87
2022-11-13T15:30:41.873Z,5.50
2022-11-13T15:34:02.836Z,6.27
2022-11-13T15:37:22.988Z,8.70
2022-11-13T15:40:43.357Z,5.73
2022-11-13T15:44:10.648Z,6.80
2022-11-13T15:47:33.313Z,7.60
2022-11-13T15:50:53.425Z,8.80
2022-11-13T15:54:18.951Z,4.63
2022-11-13T15:57:39.128Z,6.80
2022-11-13T16:00:59.810Z,6.63
2022-11-13T16:04:20.236Z,7.90
2022-11-13T16:07:42.264Z,5.93
2022-11-13T16:11:02.588Z,9.47
2022-11-13T16:14:25.102Z,6.83
2022-11-13T16:17:49.319Z,6.97
2022-11-13T16:21:13.754Z,9.17
2022-11-13T16:24:33.919Z,6.63
2022-11-13T16:27:54.479Z,12.17
2022-11-13T16:31:15.086Z,8.50
2022-11-13T16:34:35.719Z,8.37
2022-11-13T16:37:56.275Z,9.87
2022-11-13T16:41:17.166Z,13.63
2022-11-13T16:44:37.822Z,12.83
2022-11-13T16:47:58.212Z,10.47
2022-11-13T16:51:18.660Z,11.13
2022-11-13T16:54:38.996Z,10.40
2022-11-13T16:57:59.466Z,10.67
2022-11-13T17:01:22.357Z,7.47
2022-11-13T17:04:43.850Z,7.93
2022-11-13T17:08:05.960Z,11.07
2022-11-13T17:11:28.864Z,13.47
2022-11-13T17:14:49.192Z,8.80
2022-11-13T17:18:12.480Z,12.70
2022-11-13T17:21:33.069Z,10.50
2022-11-13T17:24:53.363Z,12.73
2022-11-13T17:28:13.912Z,12.37
2022-11-13T17:31:34.488Z,11.43
2022-11-13T17:34:54.915Z,12.70
2022-11-13T17:38:15.571Z,9.30
2022-11-13T17:41:37.241Z,11.47
2022-11-13T17:44:57.348Z,10.20
2022-11-13T17:48:18.659Z,12.63
2022-11-13T17:51:38.733Z,11.03
2022-11-13T17:54:59.153Z,8.97
2022-11-13T17:58:19.589Z,9.00
2022-11-13T18:01:40.182Z,11.10
2022-11-13T18:05:01.340Z,11.97
2022-11-13T18:08:21.735Z,10.77
2022-11-13T18:11:42.217Z,13.73
2022-11-13T18:15:03.311Z,11.33
2022-11-13T18:18:23.758Z,12.00
2022-11-13T18:21:44.144Z,10.97
2022-11-13T18:25:05.219Z,8.07
2022-11-13T18:28:25.658Z,8.47
2022-11-13T18:31:46.022Z,7.63
2022-11-13T18:35:07.066Z,8.20
2022-11-13T18:38:28.520Z,8.33
2022-11-13T18:41:50.412Z,7.57
2022-11-13T18:45:11.641Z,6.43
2022-11-13T18:48:36.330Z,6.63
2022-11-13T18:51:56.617Z,5.77
2022-11-13T18:55:17.070Z,8.03
2022-11-13T18:58:39.056Z,9.07
2022-11-13T19:01:59.726Z,9.23
2022-11-13T19:05:19.984Z,12.23
2022-11-13T19:08:41.279Z,11.47
2022-11-13T19:12:01.646Z,16.47
2022-11-13T19:15:22.088Z,14.57
2022-11-13T19:18:44.602Z,14.03
2022-11-13T19:22:04.792Z,13.47
2022-11-13T19:25:26.211Z,12.30
2022-11-13T19:28:48.468Z,16.67
2022-11-13T19:32:09.022Z,10.43
2022-11-13T19:35:29.596Z,11.67
2022-11-13T19:38:50.612Z,9.83
2022-11-13T19:42:10.964Z,10.47
2022-11-13T19:45:31.904Z,10.47
2022-11-13T19:48:52.383Z,10.17
2022-11-13T19:52:12.856Z,4.63
2022-11-13T19:55:34.711Z,5.97
2022-11-13T19:58:55.462Z,8.80
2022-11-13T20:02:15.780Z,4.87
2022-11-13T20:05:40.886Z,6.37
2022-11-13T20:09:02.386Z,6.50
2022-11-13T20:12:23.779Z,5.87
2022-11-13T20:15:44.183Z,8.00
2022-11-13T20:19:04.740Z,7.77
2022-11-13T20:22:25.451Z,9.20
2022-11-13T20:25:54.151Z,8.07
2022-11-13T20:29:14.343Z,8.10
2022-11-13T20:32:38.855Z,7.87
2022-11-13T20:35:59.169Z,6.90
2022-11-13T20:39:19.269Z,6.40
2022-11-13T20:42:39.777Z,9.67
2022-11-13T20:46:08.899Z,7.97
2022-11-13T20:49:29.103Z,8.13
2022-11-13T20:52:49.723Z,7.23
2022-11-13T20:56:10.439Z,8.63
2022-11-13T20:59:30.541Z,9.77
2022-11-13T21:02:51.765Z,8.67
2022-11-13T21:06:16.611Z,6.53
2022-11-13T21:09:36.798Z,6.67
2022-11-13T21:12:57.357Z,9.40
2022-11-13T21:16:18.169Z,8.93
2022-11-13T21:19:38.686Z,8.43
2022-11-13T21:22:58.992Z,8.97
2022-11-13T21:26:19.464Z,10.17
2022-11-13T21:29:39.950Z,13.87
2022-11-13T21:33:00.895Z,11.07
2022-11-13T21:36:23.645Z,12.67
2022-11-13T21:39:43.851Z,10.40
2022-11-13T21:43:04.382Z,12.23
2022-11-13T21:46:30.778Z,11.13
2022-11-13T21:49:51.315Z,10.17
2022-11-13T21:53:12.086Z,13.73
2022-11-13T21:56:35.153Z,11.90
2022-11-13T21:59:55.529Z,16.53
2022-11-13T22:03:15.979Z,17.00
2022-11-13T22:06:36.674Z,16.53
2022-11-13T22:09:56.795Z,14.03
2022-11-13T22:13:17.239Z,16.70
2022-11-13T22:16:40.258Z,19.27
2022-11-13T22:20:00.651Z,17.57
2022-11-13T22:23:21.876Z,20.07
2022-11-13T22:26:50.422Z,17.27
2022-11-13T22:30:11.023Z,17.83
2022-11-13T22:33:33.260Z,21.30
2022-11-13T22:36:53.450Z,22.07
2022-11-13T22:40:14.825Z,17.33
2022-11-13T22:43:37.316Z,21.27
2022-11-13T22:46:58.124Z,17.60
2022-11-13T22:50:18.639Z,18.07
2022-11-13T22:53:40.176Z,19.30
2022-11-13T22:57:03.941Z,19.93
2022-11-13T23:00:24.237Z,17.90
2022-11-13T23:03:46.582Z,18.87
2022-11-13T23:07:06.898Z,17.40
2022-11-13T23:10:27.247Z,21.37
2022-11-13T23:13:50.394Z,18.93
2022-11-13T23:17:10.782Z,29.83
2022-11-13T23:20:31.174Z,22.40
2022-11-13T23:23:52.111Z,22.10
2022-11-13T23:27:12.927Z,23.60
2022-11-13T23:30:33.327Z,22.03
2022-11-13T23:33:53.616Z,18.60
2022-11-13T23:37:13.969Z,24.20
2022-11-13T23:40:34.407Z,19.73
2022-11-13T23:44:08.202Z,18.20
2022-11-13T23:47:28.990Z,21.37
2022-11-13T23:50:49.320Z,19.07
2022-11-13T23:54:09.768Z,21.77
2022-11-13T23:57:30.130Z,18.23
